createdAt,value
2018-11-04T00:01:05.466Z,3.50
2018-11-04T00:03:33.556Z,4.30
2018-11-04T00:06:01.657Z,3.93
2018-11-04T00:08:29.777Z,4.13
2018-11-04T00:10:57.915Z,4.30
2018-11-04T00:13:25.993Z,4.63
2018-11-04T00:15:54.192Z,3.93
2018-11-04T00:18:22.299Z,4.80
2018-11-04T00:20:50.467Z,3.50
2018-11-04T00:23:18.608Z,5.53
2018-11-04T00:25:46.714Z,4.35
2018-11-04T00:28:14.824Z,4.57
2018-11-04T00:30:43.020Z,4.40
2018-11-04T00:33:11.097Z,4.57
2018-11-04T00:35:39.232Z,4.53
2018-11-04T00:38:07.322Z,3.85
2018-11-04T00:40:35.443Z,3.95
2018-11-04T00:43:03.530Z,4.80
2018-11-04T00:45:31.666Z,4.83
2018-11-04T00:47:59.708Z,3.40
2018-11-04T00:50:27.786Z,4.87
2018-11-04T00:52:55.896Z,3.70
2018-11-04T00:55:24.020Z,3.80
2018-11-04T00:57:52.096Z,4.03
2018-11-04T01:00:20.435Z,4.13
2018-11-04T01:02:49.923Z,4.45
2018-11-04T01:05:18.439Z,4.80
2018-11-04T01:07:46.514Z,3.80
2018-11-04T01:10:14.965Z,4.33
2018-11-04T01:12:43.636Z,3.77
2018-11-04T01:15:12.835Z,3.70
2018-11-04T01:17:41.616Z,4.42
2018-11-04T01:20:11.864Z,3.97
2018-11-04T01:22:39.951Z,3.40
2018-11-04T01:25:08.199Z,4.30
2018-11-04T01:27:36.316Z,3.30
2018-11-04T01:30:05.552Z,3.83
2018-11-04T01:32:33.794Z,4.78
2018-11-04T01:35:01.854Z,4.50
2018-11-04T01:37:29.904Z,4.47
2018-11-04T01:39:57.974Z,4.30
2018-11-04T01:42:26.123Z,4.10
2018-11-04T01:44:54.233Z,3.57
2018-11-04T01:47:22.280Z,4.30
2018-11-04T01:49:50.372Z,3.60
2018-11-04T01:52:18.427Z,4.70
2018-11-04T01:54:46.595Z,4.05
2018-11-04T01:57:14.732Z,4.37
2018-11-04T01:59:42.850Z,3.93
2018-11-04T02:02:11.055Z,4.95
2018-11-04T02:04:39.129Z,4.67
2018-11-04T02:07:07.436Z,4.23
2018-11-04T02:09:35.528Z,4.53
2018-11-04T02:12:03.644Z,3.80
2018-11-04T02:14:31.785Z,4.13
2018-11-04T02:16:59.875Z,4.17
2018-11-04T02:19:27.967Z,3.30
2018-11-04T02:21:56.116Z,4.30
2018-11-04T02:24:24.226Z,4.70
2018-11-04T02:26:52.291Z,3.25
2018-11-04T02:29:20.373Z,3.52
2018-11-04T02:31:48.438Z,3.23
2018-11-04T02:34:16.529Z,4.10
2018-11-04T02:36:44.681Z,4.23
2018-11-04T02:39:12.795Z,4.00
2018-11-04T02:41:40.916Z,4.07
2018-11-04T02:44:09.107Z,4.30
2018-11-04T02:46:38.246Z,3.60
2018-11-04T02:49:06.342Z,3.60
2018-11-04T02:51:34.408Z,3.30
2018-11-04T02:54:02.456Z,3.70
2018-11-04T02:56:30.562Z,4.53
2018-11-04T02:58:58.735Z,7.17
2018-11-04T03:01:27.077Z,6.37
2018-11-04T03:03:55.171Z,4.10
2018-11-04T03:06:23.281Z,5.63
2018-11-04T03:08:51.321Z,3.37
2018-11-04T03:11:19.427Z,5.00
2018-11-04T03:13:47.552Z,4.83
2018-11-04T03:16:15.621Z,6.00
2018-11-04T03:18:43.724Z,4.83
2018-11-04T03:21:11.803Z,5.40
2018-11-04T03:23:40.792Z,3.10
2018-11-04T03:26:09.022Z,5.20
2018-11-04T03:28:37.145Z,3.17
2018-11-04T03:31:06.060Z,4.50
2018-11-04T03:33:34.095Z,3.37
2018-11-04T03:36:02.283Z,5.83
2018-11-04T03:38:30.360Z,5.60
2018-11-04T03:40:58.463Z,5.73
2018-11-04T03:43:26.545Z,5.03
2018-11-04T03:45:54.637Z,5.30
2018-11-04T03:48:22.739Z,5.30
2018-11-04T03:50:50.806Z,5.10
2018-11-04T03:53:18.882Z,5.97
2018-11-04T03:55:46.959Z,4.23
2018-11-04T03:58:15.030Z,5.80
2018-11-04T04:00:43.591Z,5.47
2018-11-04T04:03:11.654Z,6.30
2018-11-04T04:05:39.709Z,3.53
2018-11-04T04:08:07.803Z,3.33
2018-11-04T04:10:35.872Z,2.97
2018-11-04T04:13:03.979Z,4.80
2018-11-04T04:15:32.121Z,5.20
2018-11-04T04:18:00.197Z,3.50
2018-11-04T04:20:28.277Z,3.23
2018-11-04T04:22:56.360Z,3.90
2018-11-04T04:25:24.409Z,3.10
2018-11-04T04:27:52.441Z,3.70
2018-11-04T04:30:20.472Z,3.40
2018-11-04T04:32:48.619Z,2.90
2018-11-04T04:35:16.647Z,3.03
2018-11-04T04:37:44.732Z,3.03
2018-11-04T04:40:12.866Z,4.10
2018-11-04T04:42:40.950Z,3.40
2018-11-04T04:45:09.023Z,3.00
2018-11-04T04:47:37.064Z,3.77
2018-11-04T04:50:05.409Z,2.80
2018-11-04T04:52:33.668Z,3.57
2018-11-04T04:55:01.828Z,3.85
2018-11-04T04:57:29.928Z,3.23
2018-11-04T04:59:58.099Z,3.30
2018-11-04T05:02:26.207Z,3.77
2018-11-04T05:04:54.436Z,3.17
2018-11-04T05:07:22.488Z,3.33
2018-11-04T05:09:50.504Z,3.17
2018-11-04T05:12:19.329Z,3.33
2018-11-04T05:14:47.600Z,3.27
2018-11-04T05:17:15.694Z,3.40
2018-11-04T05:19:43.726Z,3.30
2018-11-04T05:22:11.902Z,3.17
2018-11-04T05:24:40.000Z,4.20
2018-11-04T05:27:08.046Z,3.63
2018-11-04T05:29:36.222Z,3.33
2018-11-04T05:32:04.252Z,3.17
2018-11-04T05:34:32.370Z,3.25
2018-11-04T05:37:00.436Z,2.70
2018-11-04T05:39:28.502Z,4.93
2018-11-04T05:41:56.644Z,3.17
2018-11-04T05:44:24.668Z,3.67
2018-11-04T05:46:52.712Z,3.40
2018-11-04T05:49:21.759Z,3.12
2018-11-04T05:51:49.808Z,2.93
2018-11-04T05:54:17.906Z,4.83
2018-11-04T05:56:45.949Z,3.47
2018-11-04T05:59:14.000Z,2.90
2018-11-04T06:01:42.042Z,2.65
2018-11-04T06:04:10.071Z,3.30
2018-11-04T06:06:38.112Z,3.37
2018-11-04T06:09:07.944Z,3.70
2018-11-04T06:11:36.028Z,3.27
2018-11-04T06:14:04.108Z,3.80
2018-11-04T06:16:32.230Z,3.93
2018-11-04T06:19:00.308Z,3.57
2018-11-04T06:21:28.433Z,3.30
2018-11-04T06:23:56.484Z,3.63
2018-11-04T06:26:24.615Z,3.40
2018-11-04T06:28:52.671Z,3.20
2018-11-04T06:31:20.728Z,3.27
2018-11-04T06:33:48.764Z,3.43
2018-11-04T06:36:16.855Z,3.73
2018-11-04T06:38:44.920Z,3.60
2018-11-04T06:41:13.108Z,2.80
2018-11-04T06:43:41.223Z,3.10
2018-11-04T06:46:09.356Z,4.00
2018-11-04T06:48:37.520Z,3.23
2018-11-04T06:51:05.624Z,2.53
2018-11-04T06:53:33.652Z,2.90
2018-11-04T06:56:01.776Z,3.80
2018-11-04T06:58:29.854Z,2.97
2018-11-04T07:00:58.061Z,3.43
2018-11-04T07:03:26.116Z,2.80
2018-11-04T07:05:54.169Z,3.77
2018-11-04T07:08:22.218Z,3.40
2018-11-04T07:10:50.236Z,4.23
2018-11-04T07:13:18.409Z,4.90
2018-11-04T07:15:46.440Z,3.03
2018-11-04T07:18:14.468Z,3.37
2018-11-04T07:20:42.580Z,3.20
2018-11-04T07:23:10.628Z,3.12
2018-11-04T07:25:38.705Z,3.00
2018-11-04T07:28:06.725Z,2.73
2018-11-04T07:30:34.864Z,3.40
2018-11-04T07:33:02.944Z,3.63
2018-11-04T07:35:31.013Z,3.40
2018-11-04T07:37:59.811Z,3.27
2018-11-04T07:40:27.848Z,4.40
2018-11-04T07:42:55.970Z,3.23
2018-11-04T07:45:24.010Z,2.90
2018-11-04T07:47:52.088Z,3.40
2018-11-04T07:50:20.241Z,3.97
2018-11-04T07:52:48.316Z,3.20
2018-11-04T07:55:17.726Z,3.47
2018-11-04T07:57:45.772Z,2.87
2018-11-04T08:00:15.054Z,3.35
2018-11-04T08:02:43.569Z,3.63
2018-11-04T08:05:12.245Z,4.30
2018-11-04T08:07:41.022Z,4.83
2018-11-04T08:10:11.244Z,4.70
2018-11-04T08:12:39.585Z,4.60
2018-11-04T08:15:07.740Z,4.40
2018-11-04T08:17:36.143Z,10.10
2018-11-04T08:20:04.456Z,9.65
2018-11-04T08:22:32.836Z,7.63
2018-11-04T08:25:00.972Z,7.20
2018-11-04T08:27:29.046Z,7.00
2018-11-04T08:29:57.167Z,6.73
2018-11-04T08:32:25.837Z,7.70
2018-11-04T08:34:54.242Z,5.90
2018-11-04T08:37:22.338Z,6.60
2018-11-04T08:39:50.471Z,6.90
2018-11-04T08:42:18.451Z,6.95
2018-11-04T08:44:46.488Z,5.93
2018-11-04T08:47:14.763Z,7.00
2018-11-04T08:49:42.799Z,5.60
2018-11-04T08:52:10.828Z,5.37
2018-11-04T08:54:38.866Z,5.10
2018-11-04T08:57:06.999Z,5.10
2018-11-04T08:59:35.956Z,6.05
2018-11-04T09:02:03.999Z,5.63
2018-11-04T09:04:32.020Z,5.33
2018-11-04T09:07:00.053Z,5.75
2018-11-04T09:09:28.136Z,5.20
2018-11-04T09:11:56.160Z,6.80
2018-11-04T09:14:24.320Z,5.40
2018-11-04T09:16:52.323Z,4.97
2018-11-04T09:19:20.400Z,4.90
2018-11-04T09:21:48.614Z,4.90
2018-11-04T09:24:16.477Z,4.70
2018-11-04T09:26:44.545Z,5.42
2018-11-04T09:29:12.695Z,4.47
2018-11-04T09:31:40.686Z,4.43
2018-11-04T09:34:09.233Z,4.80
2018-11-04T09:36:37.449Z,5.70
2018-11-04T09:39:07.699Z,4.90
2018-11-04T09:41:35.740Z,4.80
2018-11-04T09:44:03.804Z,4.90
2018-11-04T09:46:31.832Z,5.27
2018-11-04T09:48:59.874Z,4.90
2018-11-04T09:51:27.904Z,3.97
2018-11-04T09:53:55.929Z,5.43
2018-11-04T09:56:24.088Z,4.80
2018-11-04T09:58:52.120Z,4.17
2018-11-04T10:01:20.171Z,4.83
2018-11-04T10:03:48.212Z,4.43
2018-11-04T10:06:16.286Z,4.70
2018-11-04T10:08:44.348Z,4.27
2018-11-04T10:11:12.767Z,5.10
2018-11-04T10:13:40.876Z,4.50
2018-11-04T10:16:09.010Z,4.43
2018-11-04T10:18:37.009Z,5.70
2018-11-04T10:21:05.419Z,5.10
2018-11-04T10:23:33.194Z,4.57
2018-11-04T10:26:01.329Z,4.00
2018-11-04T10:28:29.380Z,4.53
2018-11-04T10:30:57.419Z,4.17
2018-11-04T10:33:25.461Z,4.72
2018-11-04T10:35:53.482Z,4.67
2018-11-04T10:38:21.516Z,4.70
2018-11-04T10:40:49.550Z,4.53
2018-11-04T10:43:17.601Z,5.53
2018-11-04T10:45:45.642Z,4.60
2018-11-04T10:48:13.683Z,4.23
2018-11-04T10:50:41.708Z,4.70
2018-11-04T10:53:09.742Z,3.80
2018-11-04T10:55:37.843Z,4.40
2018-11-04T10:58:05.870Z,4.73
2018-11-04T11:00:39.330Z,4.10
2018-11-04T11:03:07.374Z,4.83
2018-11-04T11:05:35.453Z,4.40
2018-11-04T11:08:03.516Z,4.47
2018-11-04T11:10:31.597Z,4.53
2018-11-04T11:12:59.670Z,5.10
2018-11-04T11:15:27.746Z,4.10
2018-11-04T11:17:55.834Z,4.67
2018-11-04T11:20:23.875Z,4.07
2018-11-04T11:22:52.241Z,3.97
2018-11-04T11:25:20.080Z,4.70
2018-11-04T11:27:48.468Z,4.53
2018-11-04T11:30:16.682Z,5.17
2018-11-04T11:32:44.568Z,4.87
2018-11-04T11:35:12.604Z,5.30
2018-11-04T11:37:40.778Z,4.67
2018-11-04T11:40:09.601Z,4.80
2018-11-04T11:42:37.929Z,4.80
2018-11-04T11:45:06.535Z,5.67
2018-11-04T11:47:34.691Z,4.50
2018-11-04T11:50:02.848Z,4.70
2018-11-04T11:52:31.160Z,4.70
2018-11-04T11:54:59.195Z,4.40
2018-11-04T11:57:27.345Z,4.67
2018-11-04T11:59:55.474Z,4.03
2018-11-04T12:02:23.655Z,4.87
2018-11-04T12:04:51.813Z,4.33
2018-11-04T12:07:20.078Z,4.63
2018-11-04T12:09:48.263Z,4.95
2018-11-04T12:12:16.372Z,4.70
2018-11-04T12:14:44.434Z,5.20
2018-11-04T12:17:12.528Z,4.50
2018-11-04T12:19:40.708Z,5.17
2018-11-04T12:22:08.824Z,3.60
2018-11-04T12:24:36.921Z,4.47
2018-11-04T12:27:05.138Z,4.08
2018-11-04T12:29:33.282Z,4.50
2018-11-04T12:32:01.461Z,4.72
2018-11-04T12:34:29.581Z,4.93
2018-11-04T12:36:57.668Z,4.90
2018-11-04T12:39:25.789Z,4.20
2018-11-04T12:41:53.971Z,5.47
2018-11-04T12:44:22.496Z,5.37
2018-11-04T12:46:50.659Z,5.57
2018-11-04T12:49:18.738Z,4.10
2018-11-04T12:51:46.840Z,4.80
2018-11-04T12:54:14.980Z,3.50
2018-11-04T12:56:43.112Z,4.40
2018-11-04T12:59:11.216Z,5.28
2018-11-04T13:01:39.398Z,4.50
2018-11-04T13:04:07.471Z,3.90
2018-11-04T13:06:35.619Z,4.60
2018-11-04T13:09:04.226Z,4.62
2018-11-04T13:11:32.318Z,5.07
2018-11-04T13:14:00.434Z,5.13
2018-11-04T13:16:28.548Z,5.07
2018-11-04T13:18:56.653Z,4.10
2018-11-04T13:21:24.927Z,4.10
2018-11-04T13:23:52.917Z,4.73
2018-11-04T13:26:21.040Z,5.67
2018-11-04T13:28:49.237Z,3.67
2018-11-04T13:31:17.382Z,4.80
2018-11-04T13:33:45.521Z,4.33
2018-11-04T13:36:13.585Z,7.93
2018-11-04T13:38:41.913Z,4.93
2018-11-04T13:41:10.033Z,6.03
2018-11-04T13:43:38.128Z,6.25
2018-11-04T13:46:06.479Z,6.30
2018-11-04T13:48:34.809Z,8.47
2018-11-04T13:51:02.839Z,6.20
2018-11-04T13:53:30.991Z,5.90
2018-11-04T13:55:59.081Z,7.50
2018-11-04T13:58:27.408Z,6.90
2018-11-04T14:00:55.496Z,6.37
2018-11-04T14:03:23.613Z,7.10
2018-11-04T14:05:52.020Z,7.27
2018-11-04T14:08:20.680Z,7.03
2018-11-04T14:10:48.811Z,5.80
2018-11-04T14:13:16.967Z,6.90
2018-11-04T14:15:45.308Z,6.50
2018-11-04T14:18:13.466Z,5.87
2018-11-04T14:20:41.799Z,5.50
2018-11-04T14:23:10.385Z,6.00
2018-11-04T14:25:38.519Z,7.00
2018-11-04T14:28:07.904Z,5.27
2018-11-04T14:30:35.989Z,5.20
2018-11-04T14:33:04.437Z,6.17
2018-11-04T14:35:32.838Z,7.70
2018-11-04T14:38:00.936Z,12.80
2018-11-04T14:40:29.298Z,11.47
2018-11-04T14:42:57.456Z,10.80
2018-11-04T14:45:25.525Z,9.37
2018-11-04T14:47:53.672Z,11.77
2018-11-04T14:50:21.818Z,10.67
2018-11-04T14:52:50.303Z,9.40
2018-11-04T14:55:18.325Z,8.43
2018-11-04T14:57:46.397Z,8.40
2018-11-04T15:00:15.856Z,7.33
2018-11-04T15:02:44.502Z,7.87
2018-11-04T15:05:12.962Z,7.15
2018-11-04T15:07:41.062Z,6.72
2018-11-04T15:10:10.916Z,7.67
2018-11-04T15:12:39.301Z,6.90
2018-11-04T15:15:08.904Z,7.40
2018-11-04T15:17:37.024Z,6.80
2018-11-04T15:20:05.994Z,6.10
2018-11-04T15:22:34.380Z,5.20
2018-11-04T15:25:02.520Z,6.37
2018-11-04T15:27:30.588Z,5.30
2018-11-04T15:29:58.684Z,5.43
2018-11-04T15:32:26.757Z,5.83
2018-11-04T15:34:55.069Z,5.23
2018-11-04T15:37:23.211Z,5.87
2018-11-04T15:39:51.240Z,5.93
2018-11-04T15:42:19.355Z,5.47
2018-11-04T15:44:47.398Z,5.07
2018-11-04T15:47:16.315Z,5.50
2018-11-04T15:49:44.620Z,5.50
2018-11-04T15:52:12.832Z,5.23
2018-11-04T15:54:40.970Z,5.10
2018-11-04T15:57:13.108Z,4.80
2018-11-04T15:59:41.299Z,4.60
2018-11-04T16:02:10.612Z,5.43
2018-11-04T16:04:44.548Z,6.03
2018-11-04T16:07:07.554Z,5.13
2018-11-04T16:09:36.417Z,5.53
2018-11-04T16:12:06.093Z,5.27
2018-11-04T16:14:36.378Z,5.23
2018-11-04T16:17:05.334Z,5.17
2018-11-04T16:19:34.195Z,5.10
2018-11-04T16:22:02.769Z,4.67
2018-11-04T16:24:31.682Z,4.00
2018-11-04T16:27:00.855Z,4.80
2018-11-04T16:29:29.501Z,5.90
2018-11-04T16:31:58.640Z,5.87
2018-11-04T16:34:27.472Z,5.40
2018-11-04T16:36:57.494Z,6.43
2018-11-04T16:39:26.641Z,5.30
2018-11-04T16:41:55.505Z,5.17
2018-11-04T16:44:25.533Z,5.40
2018-11-04T16:46:54.312Z,5.23
2018-11-04T16:49:23.500Z,8.60
2018-11-04T16:51:52.472Z,7.50
2018-11-04T16:54:22.318Z,6.55
2018-11-04T16:56:52.997Z,6.67
2018-11-04T16:59:22.988Z,7.33
2018-11-04T17:01:51.908Z,6.70
2018-11-04T17:04:21.186Z,9.50
2018-11-04T17:06:49.228Z,8.73
2018-11-04T17:09:17.353Z,9.37
2018-11-04T17:11:45.473Z,7.53
2018-11-04T17:14:14.488Z,7.50
2018-11-04T17:16:42.889Z,8.93
2018-11-04T17:19:11.396Z,8.00
2018-11-04T17:21:39.719Z,8.27
2018-11-04T17:24:08.374Z,7.93
2018-11-04T17:26:36.785Z,8.90
2018-11-04T17:29:05.869Z,33.73
2018-11-04T17:31:35.413Z,22.63
2018-11-04T17:34:03.904Z,22.47
2018-11-04T17:36:32.048Z,16.57
2018-11-04T17:39:00.093Z,14.37
2018-11-04T17:41:28.267Z,13.50
2018-11-04T17:43:56.577Z,11.93
2018-11-04T17:46:24.728Z,10.47
2018-11-04T17:48:52.879Z,10.55
2018-11-04T17:51:21.029Z,9.07
2018-11-04T17:53:49.175Z,9.07
2018-11-04T17:56:17.322Z,9.00
2018-11-04T17:58:45.487Z,10.73
2018-11-04T18:01:14.551Z,8.30
2018-11-04T18:03:43.582Z,8.77
2018-11-04T18:06:11.632Z,7.60
2018-11-04T18:08:39.841Z,9.13
2018-11-04T18:11:07.864Z,7.23
2018-11-04T18:13:35.917Z,7.30
2018-11-04T18:16:04.004Z,7.70
2018-11-04T18:18:32.083Z,6.83
2018-11-04T18:21:00.164Z,6.43
2018-11-04T18:23:28.205Z,5.70
2018-11-04T18:25:56.260Z,6.80
2018-11-04T18:28:24.319Z,6.30
2018-11-04T18:30:52.396Z,5.67
2018-11-04T18:33:20.468Z,6.95
2018-11-04T18:35:48.494Z,6.20
2018-11-04T18:38:16.556Z,5.70
2018-11-04T18:40:45.629Z,6.33
2018-11-04T18:43:13.689Z,6.27
2018-11-04T18:45:42.497Z,5.90
2018-11-04T18:48:10.596Z,5.90
2018-11-04T18:50:38.716Z,5.70
2018-11-04T18:53:06.797Z,5.83
2018-11-04T18:55:35.172Z,6.03
2018-11-04T18:58:03.489Z,5.83
2018-11-04T19:00:32.146Z,5.80
2018-11-04T19:03:00.327Z,5.60
2018-11-04T19:05:28.833Z,5.43
2018-11-04T19:07:56.996Z,6.05
2018-11-04T19:10:25.173Z,5.70
2018-11-04T19:12:53.706Z,4.50
2018-11-04T19:15:21.986Z,5.00
2018-11-04T19:17:50.204Z,5.30
2018-11-04T19:20:18.429Z,4.70
2018-11-04T19:22:46.558Z,5.53
2018-11-04T19:25:15.411Z,4.73
2018-11-04T19:27:43.509Z,5.57
2018-11-04T19:30:13.394Z,5.23
2018-11-04T19:32:41.648Z,5.20
2018-11-04T19:35:10.966Z,5.13
2018-11-04T19:37:39.248Z,5.27
2018-11-04T19:40:08.728Z,6.00
2018-11-04T19:42:37.169Z,4.30
2018-11-04T19:45:05.683Z,5.50
2018-11-04T19:47:33.804Z,4.67
2018-11-04T19:50:02.013Z,5.15
2018-11-04T19:52:31.026Z,4.77
2018-11-04T19:54:59.163Z,4.03
2018-11-04T19:57:28.869Z,4.50
2018-11-04T19:59:57.865Z,4.23
2018-11-04T20:02:26.187Z,4.00
2018-11-04T20:04:54.755Z,5.80
2018-11-04T20:07:22.954Z,4.40
2018-11-04T20:09:51.032Z,4.40
2018-11-04T20:12:24.497Z,4.63
2018-11-04T20:14:53.237Z,5.08
2018-11-04T20:17:21.323Z,4.53
2018-11-04T20:19:55.054Z,4.63
2018-11-04T20:22:23.581Z,5.90
2018-11-04T20:24:57.233Z,4.17
2018-11-04T20:27:25.491Z,4.30
2018-11-04T20:35:03.630Z,4.53
2018-11-04T20:37:31.784Z,4.77
2018-11-04T20:40:05.462Z,5.25
2018-11-04T20:42:33.594Z,4.08
2018-11-04T20:45:02.073Z,4.27
2018-11-04T20:47:35.230Z,4.37
2018-11-04T20:50:08.724Z,4.80
2018-11-04T20:52:36.916Z,5.20
2018-11-04T20:55:05.242Z,4.67
2018-11-04T20:57:39.225Z,3.67
2018-11-04T21:00:10.211Z,5.25
2018-11-04T21:02:38.520Z,4.00
2018-11-04T21:05:07.749Z,3.97
2018-11-04T21:07:36.106Z,4.27
2018-11-04T21:10:05.503Z,4.70
2018-11-04T21:12:33.539Z,4.10
2018-11-04T21:15:01.601Z,5.03
2018-11-04T21:17:29.628Z,3.80
2018-11-04T21:19:57.711Z,3.87
2018-11-04T21:22:26.037Z,3.90
2018-11-04T21:24:54.159Z,4.70
2018-11-04T21:27:22.259Z,3.57
2018-11-04T21:29:50.447Z,3.53
2018-11-04T21:32:18.490Z,3.73
2018-11-04T21:34:46.894Z,3.35
2018-11-04T21:37:14.953Z,3.97
2018-11-04T21:39:43.000Z,3.90
2018-11-04T21:42:11.119Z,4.00
2018-11-04T21:44:39.294Z,4.45
2018-11-04T21:47:07.283Z,3.73
2018-11-04T21:49:35.345Z,4.03
2018-11-04T21:52:03.436Z,3.93
2018-11-04T21:54:31.581Z,3.83
2018-11-04T21:57:00.790Z,4.13
2018-11-04T21:59:28.870Z,4.00
2018-11-04T22:01:57.719Z,3.43
2018-11-04T22:04:25.955Z,4.97
2018-11-04T22:06:54.665Z,3.50
2018-11-04T22:09:22.704Z,3.90
2018-11-04T22:11:50.787Z,3.40
2018-11-04T22:14:19.104Z,3.73
2018-11-04T22:16:47.185Z,4.28
2018-11-04T22:19:15.280Z,4.22
2018-11-04T22:21:43.514Z,3.33
2018-11-04T22:24:11.540Z,4.40
2018-11-04T22:26:39.787Z,4.83
2018-11-04T22:29:07.864Z,3.33
2018-11-04T22:31:36.100Z,3.43
2018-11-04T22:34:04.259Z,4.40
2018-11-04T22:36:32.613Z,3.53
2018-11-04T22:39:00.621Z,3.20
2018-11-04T22:41:28.759Z,3.17
2018-11-04T22:43:56.949Z,3.70
2018-11-04T22:46:25.123Z,3.67
2018-11-04T22:48:53.412Z,4.60
2018-11-04T22:51:21.668Z,4.92
2018-11-04T22:53:49.688Z,2.90
2018-11-04T22:56:17.838Z,3.40
2018-11-04T22:58:45.818Z,3.53
2018-11-04T23:01:14.342Z,4.53
2018-11-04T23:03:42.466Z,3.90
2018-11-04T23:06:10.545Z,3.23
2018-11-04T23:08:38.620Z,4.20
2018-11-04T23:11:06.679Z,3.47
2018-11-04T23:13:34.744Z,3.57
2018-11-04T23:16:02.787Z,4.03
2018-11-04T23:18:30.949Z,3.40
2018-11-04T23:20:58.958Z,2.97
2018-11-04T23:23:27.104Z,3.07
2018-11-04T23:25:55.166Z,3.30
2018-11-04T23:28:23.392Z,3.23
2018-11-04T23:30:52.336Z,4.00
2018-11-04T23:33:20.792Z,4.58
2018-11-04T23:35:49.429Z,3.62
2018-11-04T23:38:17.601Z,3.53
2018-11-04T23:40:45.661Z,3.83
2018-11-04T23:43:13.680Z,4.63
2018-11-04T23:45:41.750Z,3.30
2018-11-04T23:48:09.831Z,2.80
2018-11-04T23:50:37.916Z,3.80
2018-11-04T23:53:05.944Z,4.60
2018-11-04T23:55:33.968Z,3.63
2018-11-04T23:58:02.075Z,3.10
